Time;durP1;ratioP1;P1;durP2;ratioP2;P2;SDS_P1;SDS_P2;PMS_P1;PMS_P2;Temp;Humidity;BMP_temperature;BMP_pressure;BME280_temperature;BME280_humidity;BME280_pressure;Samples;Min_cycle;Max_cycle;Signal;HPM_P1;HPM_P2
2022/08/04 00:02:00;;;;;;;5.05;1.50;;;;;;;25.03;70.57;100437.09;5014681;28;20033;-87
2022/08/04 00:04:39;;;;;;;2.42;1.42;;;;;;;24.89;72.05;100441.34;5014459;28;20038;-86
2022/08/04 00:07:12;;;;;;;6.68;1.88;;;;;;;24.90;72.61;100437.53;4996386;28;20041;-87
2022/08/04 00:09:48;;;;;;;3.72;1.60;;;;;;;24.93;72.46;100445.97;5014328;28;20140;-87
2022/08/04 00:12:15;;;;;;;3.30;1.52;;;;;;;24.90;73.18;100451.91;5014197;28;20042;-88
2022/08/04 00:14:47;;;;;;;5.25;1.95;;;;;;;24.88;73.77;100440.50;5014297;28;20034;-86
2022/08/04 00:17:13;;;;;;;;;;;;;;;24.79;74.74;100442.00;4996972;28;20542;-87
2022/08/04 00:19:42;;;;;;;6.75;1.80;;;;;;;24.73;74.83;100445.75;5013938;28;19917;-87
2022/08/04 00:22:10;;;;;;;2.10;1.80;;;;;;;24.70;74.90;100443.53;4996632;28;20092;-86
2022/08/04 00:24:36;;;;;;;6.32;1.98;;;;;;;24.70;74.99;100444.38;4996251;28;20479;-87
2022/08/04 00:27:06;;;;;;;7.50;1.88;;;;;;;24.64;75.55;100456.25;5014158;28;20034;-87
2022/08/04 00:29:33;;;;;;;7.70;1.65;;;;;;;24.59;75.93;100442.63;4996434;28;20120;-85
2022/08/04 00:32:02;;;;;;;3.80;1.75;;;;;;;24.80;74.37;100448.25;4996122;28;20034;-86
2022/08/04 00:34:30;;;;;;;3.88;1.80;;;;;;;24.83;74.17;100443.16;5014102;28;20494;-87
2022/08/04 00:36:57;;;;;;;3.13;1.70;;;;;;;24.77;74.72;100444.16;5014211;28;20118;-86
2022/08/04 00:39:23;;;;;;;3.55;1.80;;;;;;;24.70;74.96;100448.97;5014034;28;20034;-86
2022/08/04 00:42:28;;;;;;;3.58;1.92;;;;;;;24.52;76.19;100452.06;4996397;28;20030;-87
2022/08/04 00:45:08;;;;;;;3.10;1.65;;;;;;;24.60;75.21;100448.88;5013550;28;20041;-85
2022/08/04 00:48:00;;;;;;;4.47;2.00;;;;;;;24.54;74.97;100449.91;4996064;28;20095;-87
2022/08/04 00:50:35;;;;;;;5.38;1.42;;;;;;;24.65;74.48;100446.22;5013701;28;20080;-84
2022/08/04 00:53:12;;;;;;;6.47;1.40;;;;;;;24.54;74.78;100444.47;4996172;28;20487;-85
2022/08/04 00:56:02;;;;;;;6.72;1.85;;;;;;;24.51;75.33;100447.69;4979756;28;20040;-86
2022/08/04 00:58:58;;;;;;;2.53;1.52;;;;;;;24.51;75.51;100440.41;5013933;28;20049;-88
2022/08/04 01:01:42;;;;;;;4.45;1.40;;;;;;;24.41;75.91;100451.13;4979975;28;20107;-88
2022/08/04 01:04:22;;;;;;;8.07;1.75;;;;;;;24.43;75.88;100442.72;4995983;28;20042;-86
2022/08/04 01:07:01;;;;;;;2.20;1.58;;;;;;;24.38;76.16;100445.38;4980127;28;20137;-87
2022/08/04 01:10:09;;;;;;;9.52;1.55;;;;;;;24.35;76.27;100441.31;4996339;28;20458;-86
2022/08/04 01:12:55;;;;;;;4.25;1.48;;;;;;;24.56;75.44;100442.34;5013986;28;20346;-88
2022/08/04 01:15:44;;;;;;;2.70;1.58;;;;;;;24.71;74.89;100445.19;5013860;28;20049;-89
2022/08/04 01:18:20;;;;;;;2.65;2.00;;;;;;;24.57;75.80;100438.53;5013887;28;20115;-88
2022/08/04 01:20:46;;;;;;;3.65;1.70;;;;;;;24.54;76.06;100442.59;5014115;28;20042;-88
2022/08/04 01:23:36;;;;;;;5.93;1.70;;;;;;;24.45;77.38;100440.59;5014099;28;20034;-88
2022/08/04 01:26:25;;;;;;;5.28;1.70;;;;;;;24.58;76.64;100445.59;5014401;28;20034;-88
2022/08/04 01:29:04;;;;;;;5.80;1.77;;;;;;;24.41;78.16;100451.13;5014162;28;20414;-86
2022/08/04 01:31:55;;;;;;;3.13;1.60;;;;;;;24.36;78.71;100453.75;5013957;28;20041;-88
2022/08/04 01:34:22;;;;;;;5.15;1.65;;;;;;;24.19;80.10;100451.13;4996585;28;20077;-86
2022/08/04 01:37:06;;;;;;;5.43;1.90;;;;;;;24.10;81.11;100458.03;5013671;28;20489;-88
2022/08/04 01:39:43;;;;;;;4.05;1.90;;;;;;;24.02;80.95;100455.78;5014013;28;20068;-89
2022/08/04 01:42:16;;;;;;;6.22;1.80;;;;;;;23.96;81.39;100459.47;5015344;28;20030;-91
2022/08/04 01:44:46;;;;;;;6.53;2.03;;;;;;;24.00;80.53;100447.06;5014180;28;20564;-90
2022/08/04 01:47:15;;;;;;;4.80;2.53;;;;;;;23.92;80.50;100452.94;5014398;28;20383;-90
2022/08/04 01:49:46;;;;;;;5.85;1.77;;;;;;;24.03;80.30;100451.97;5014391;28;20410;-90
2022/08/04 01:52:16;;;;;;;4.13;1.60;;;;;;;24.12;79.36;100447.81;4996207;28;20112;-88
2022/08/04 01:54:42;;;;;;;3.33;1.70;;;;;;;24.16;79.03;100448.94;5014079;28;20096;-89
2022/08/04 01:57:10;;;;;;;3.35;1.75;;;;;;;24.00;80.39;100449.78;4995893;28;20561;-89
2022/08/04 01:59:37;;;;;;;9.43;2.42;;;;;;;23.88;81.45;100449.09;4996223;28;20136;-90
2022/08/04 02:02:04;;;;;;;5.57;1.77;;;;;;;23.78;81.76;100457.09;4996461;28;20073;-88
2022/08/04 02:04:30;;;;;;;5.93;1.70;;;;;;;23.69;82.88;100453.19;5013673;28;20034;-89
2022/08/04 02:07:13;;;;;;;4.22;1.73;;;;;;;23.63;83.08;100456.88;5013461;28;20044;-90
2022/08/04 02:10:22;;;;;;;6.75;1.92;;;;;;;23.56;83.42;100451.66;4999592;28;20041;-88
2022/08/04 02:13:24;;;;;;;7.40;1.90;;;;;;;23.57;82.93;100452.44;4999711;28;20034;-87
2022/08/04 02:16:15;;;;;;;5.22;1.90;;;;;;;23.68;81.97;100452.34;4999785;28;20034;-90
2022/08/04 02:18:59;;;;;;;14.32;2.42;;;;;;;23.77;80.48;100460.84;5017053;28;20029;-91
2022/08/04 02:21:28;;;;;;;3.85;1.80;;;;;;;23.69;80.51;100458.59;5017210;28;20030;-88
2022/08/04 02:24:00;;;;;;;3.80;1.63;;;;;;;23.86;79.52;100451.25;5016736;28;20383;-89
2022/08/04 02:26:28;;;;;;;3.85;1.55;;;;;;;23.95;78.60;100457.84;4999139;28;20049;-88
2022/08/04 02:29:02;;;;;;;5.57;1.70;;;;;;;23.82;79.25;100452.81;4999502;28;20044;-90
2022/08/04 02:31:43;;;;;;;3.22;1.65;;;;;;;23.85;79.21;100457.72;5016297;28;20048;-90
2022/08/04 02:34:08;;;;;;;6.43;1.50;;;;;;;23.96;78.69;100459.47;4998912;28;20483;-87
2022/08/04 02:36:37;;;;;;;2.17;1.50;;;;;;;23.99;78.69;100442.75;5016644;28;20040;-88
2022/08/04 02:39:06;;;;;;;3.40;1.67;;;;;;;23.82;79.82;100457.41;4999038;28;20038;-86
2022/08/04 02:41:33;;;;;;;2.35;1.50;;;;;;;23.76;80.91;100453.81;4998606;28;20131;-90
2022/08/04 02:44:04;;;;;;;8.68;2.30;;;;;;;23.72;81.15;100452.66;4998764;28;20107;-88
2022/08/04 02:46:31;;;;;;;2.83;1.55;;;;;;;23.70;81.27;100449.38;5016566;28;20044;-89
2022/08/04 02:48:57;;;;;;;8.23;1.75;;;;;;;23.80;81.08;100460.34;5017213;28;20120;-87
2022/08/04 02:51:48;;;;;;;4.93;1.52;;;;;;;23.64;81.86;100450.38;5022306;28;20034;-89
2022/08/04 02:54:37;;;;;;;2.45;1.38;;;;;;;23.62;82.15;100453.34;5021388;28;20038;-88
2022/08/04 02:57:10;;;;;;;3.97;1.95;;;;;;;23.54;83.34;100455.66;5035602;28;20091;-89
2022/08/04 02:59:57;;;;;;;3.67;1.90;;;;;;;23.53;83.11;100454.03;5022284;28;20030;-90
2022/08/04 03:02:36;;;;;;;2.15;1.45;;;;;;;23.61;82.61;100456.28;5017848;28;20057;-88
2022/08/04 03:05:09;;;;;;;16.50;2.22;;;;;;;23.62;81.66;100452.53;5016283;28;20065;-87
2022/08/04 03:07:46;;;;;;;3.08;1.67;;;;;;;23.53;82.83;100464.84;5016572;28;20030;-88
2022/08/04 03:10:49;;;;;;;4.15;1.88;;;;;;;23.41;81.97;100456.00;4998560;28;20043;-90
2022/08/04 03:13:31;;;;;;;2.78;1.67;;;;;;;23.50;81.22;100455.31;4982149;28;20060;-88
2022/08/04 03:16:26;;;;;;;5.45;1.70;;;;;;;23.47;81.47;100461.22;4998499;28;20070;-87
2022/08/04 03:19:09;;;;;;;3.30;1.65;;;;;;;23.37;81.93;100454.81;4998342;28;20072;-87
2022/08/04 03:21:53;;;;;;;3.38;1.83;;;;;;;23.46;82.01;100453.38;5015764;28;20057;-88
2022/08/04 03:24:37;;;;;;;3.13;1.60;;;;;;;23.72;80.69;100455.38;5000019;28;20034;-89
2022/08/04 03:27:25;;;;;;;3.92;1.90;;;;;;;23.48;81.48;100452.06;4999215;28;20041;-90
2022/08/04 03:30:08;;;;;;;4.00;1.75;;;;;;;23.41;82.33;100462.22;5024598;28;20087;-85
2022/08/04 03:32:36;;;;;;;2.58;1.48;;;;;;;23.35;83.38;100451.53;5034935;28;20098;-85
2022/08/04 03:35:39;;;;;;;3.28;1.77;;;;;;;23.27;84.19;100449.28;5001256;28;20046;-85
2022/08/04 03:38:30;;;;;;;2.65;1.50;;;;;;;23.11;85.56;100457.13;5013065;28;20101;-87
2022/08/04 03:41:04;;;;;;;6.40;1.70;;;;;;;23.04;86.65;100450.22;5013746;28;20034;-85
2022/08/04 03:44:05;;;;;;;2.27;1.80;;;;;;;23.07;86.58;100450.56;4985473;28;20105;-88
2022/08/04 03:46:57;;;;;;;4.60;2.05;;;;;;;22.94;88.38;100450.06;4998724;28;20038;-90
2022/08/04 03:49:46;;;;;;;3.10;2.08;;;;;;;22.90;89.35;100449.72;4968698;28;20100;-88
2022/08/04 03:55:45;;;;;;;3.42;2.28;;;;;;;22.93;89.40;100454.69;4997804;28;20045;-88
2022/08/04 03:58:39;;;;;;;3.58;2.05;;;;;;;23.11;87.65;100457.13;5015943;28;20033;-88
2022/08/04 04:01:32;;;;;;;5.28;2.38;;;;;;;23.09;88.16;100455.75;4998581;28;20069;-88
2022/08/04 04:04:22;;;;;;;3.67;2.78;;;;;;;23.03;89.31;100459.44;4998101;28;20041;-90
2022/08/04 04:07:03;;;;;;;5.80;2.45;;;;;;;22.92;89.78;100454.91;5015250;28;20129;-87
2022/08/04 04:10:06;;;;;;;5.00;2.40;;;;;;;22.92;89.35;100444.91;5015040;28;20073;-87
2022/08/04 04:12:42;;;;;;;;;;;;;;;22.92;89.87;100450.31;4998512;28;20045;-87
2022/08/04 04:15:37;;;;;;;6.28;2.70;;;;;;;22.89;90.38;100447.28;4982198;28;20275;-87
2022/08/04 04:18:18;;;;;;;4.35;2.20;;;;;;;23.06;89.09;100443.53;5015230;28;20034;-89
2022/08/04 04:21:13;;;;;;;3.13;1.73;;;;;;;23.27;87.50;100446.56;5015687;28;20041;-87
2022/08/04 04:24:06;;;;;;;4.28;2.40;;;;;;;23.24;88.21;100444.34;4989930;28;20049;-86
2022/08/04 04:26:56;;;;;;;7.15;2.60;;;;;;;23.20;89.04;100444.00;5016995;28;20403;-89
2022/08/04 04:29:39;;;;;;;5.03;2.60;;;;;;;23.28;88.64;100456.31;4999849;28;20054;-89
2022/08/04 04:32:26;;;;;;;8.82;2.92;;;;;;;23.25;88.88;100456.78;4998476;28;20422;-87
2022/08/04 04:35:23;;;;;;;8.15;2.85;;;;;;;23.09;90.04;100448.47;5016844;28;20033;-86
2022/08/04 04:38:07;;;;;;;8.18;2.60;;;;;;;23.06;90.02;100453.53;5000021;28;20046;-87
2022/08/04 04:41:00;;;;;;;3.75;2.63;;;;;;;23.03;89.72;100460.25;4982211;28;20439;-88
2022/08/04 04:43:38;;;;;;;3.78;2.50;;;;;;;23.11;89.87;100461.72;4999439;28;20041;-91
2022/08/04 04:46:47;;;;;;;9.80;2.63;;;;;;;23.43;88.23;100456.59;5017038;28;20041;-90
2022/08/04 04:49:28;;;;;;;10.10;2.70;;;;;;;23.47;87.00;100460.41;4975776;28;20125;-87
2022/08/04 04:52:11;;;;;;;7.10;2.20;;;;;;;23.45;87.34;100465.25;4987761;28;20202;-88
2022/08/04 04:54:44;;;;;;;2.78;2.20;;;;;;;23.56;87.48;100469.75;5016928;28;20034;-88
2022/08/04 04:57:19;;;;;;;5.95;2.10;;;;;;;23.59;86.70;100469.25;5013739;28;20042;-89
2022/08/04 04:59:54;;;;;;;5.00;2.13;;;;;;;23.61;87.04;100472.53;4999122;28;20049;-86
2022/08/04 05:02:38;;;;;;;11.60;2.92;;;;;;;23.51;87.75;100466.97;4979127;23;20503;-87
2022/08/04 05:05:13;;;;;;;7.63;2.28;;;;;;;23.58;86.80;100470.31;4997095;28;20567;-85
2022/08/04 05:07:57;;;;;;;10.15;2.70;;;;;;;23.55;87.09;100471.66;4978978;28;20116;-87
2022/08/04 05:10:56;;;;;;;11.15;2.95;;;;;;;23.66;86.10;100475.31;4997200;28;20038;-90
2022/08/04 05:13:28;;;;;;;8.02;2.17;;;;;;;23.71;86.22;100472.69;4997435;28;20038;-90
2022/08/04 05:15:59;;;;;;;9.35;2.55;;;;;;;23.76;85.48;100472.75;4979667;28;20079;-87
2022/08/04 05:18:27;;;;;;;5.38;2.25;;;;;;;23.91;84.72;100472.97;4996737;28;20069;-86
2022/08/04 05:21:03;;;;;;;10.80;2.28;;;;;;;24.16;82.00;100476.00;4976913;28;20388;-89
2022/08/04 05:23:33;;;;;;;11.15;2.42;;;;;;;24.13;82.69;100465.69;4987511;28;20494;-86
2022/08/04 05:26:05;;;;;;;12.00;2.58;;;;;;;24.32;81.64;100478.91;4986260;28;20035;-89
2022/08/04 05:28:40;;;;;;;8.27;2.53;;;;;;;24.41;81.11;100466.56;4989245;28;20031;-88
2022/08/04 05:31:28;;;;;;;21.50;2.60;;;;;;;24.51;80.84;100472.09;4981998;28;20043;-90
2022/08/04 05:33:57;;;;;;;21.27;3.10;;;;;;;24.79;79.13;100469.09;4981679;28;20030;-89
2022/08/04 05:36:39;;;;;;;16.00;2.80;;;;;;;24.91;78.97;100461.69;4967651;28;20046;-88
2022/08/04 05:39:08;;;;;;;12.85;3.25;;;;;;;25.10;78.01;100465.63;4996779;28;20035;-87
2022/08/04 05:41:35;;;;;;;11.65;3.03;;;;;;;25.30;76.15;100466.88;4975147;28;20026;-89
2022/08/04 05:44:03;;;;;;;13.23;3.35;;;;;;;25.58;75.19;100470.09;4982832;28;20065;-88
2022/08/04 05:46:30;;;;;;;10.13;3.65;;;;;;;25.81;73.34;100470.78;4966796;28;20043;-90
2022/08/04 05:48:59;;;;;;;10.25;4.00;;;;;;;26.07;72.28;100478.78;4966129;28;20038;-89
2022/08/04 05:51:25;;;;;;;16.48;3.95;;;;;;;26.39;69.90;100475.94;4964520;28;20039;-90
2022/08/04 05:53:54;;;;;;;15.55;3.90;;;;;;;26.75;68.24;100487.72;4962795;28;20174;-90
2022/08/04 05:56:20;;;;;;;12.40;3.15;;;;;;;27.08;66.45;100483.69;4963974;28;20071;-89
2022/08/04 05:58:46;;;;;;;10.88;2.67;;;;;;;27.19;65.94;100482.63;4982710;28;20043;-90
2022/08/04 06:01:13;;;;;;;10.10;2.78;;;;;;;27.35;64.18;100486.97;4966948;28;20042;-90
2022/08/04 06:03:40;;;;;;;10.25;2.70;;;;;;;27.56;63.34;100495.97;4980329;28;20506;-88
2022/08/04 06:06:08;;;;;;;12.40;2.70;;;;;;;28.22;60.44;100497.44;4981192;28;20105;-88
2022/08/04 06:08:33;;;;;;;9.30;2.38;;;;;;;28.40;59.77;100503.38;4963248;28;20396;-89
2022/08/04 06:11:04;;;;;;;12.98;2.80;;;;;;;28.34;60.86;100509.94;4947392;28;20046;-88
2022/08/04 06:13:36;;;;;;;8.20;2.33;;;;;;;28.40;61.08;100509.63;4963181;28;20035;-90
2022/08/04 06:16:05;;;;;;;6.47;2.33;;;;;;;29.31;56.32;100502.78;4962724;28;20093;-88
2022/08/04 06:18:33;;;;;;;8.80;2.10;;;;;;;28.90;55.64;100508.53;4979447;28;20110;-89
2022/08/04 06:21:02;;;;;;;7.55;2.30;;;;;;;29.06;54.86;100507.34;4979309;28;20042;-91
2022/08/04 06:23:30;;;;;;;9.70;2.20;;;;;;;29.12;54.37;100506.22;4979413;28;20062;-89
2022/08/04 06:25:59;;;;;;;6.40;2.65;;;;;;;28.97;54.93;100514.50;4962801;28;20039;-86
2022/08/04 06:28:27;;;;;;;7.88;2.75;;;;;;;29.03;54.46;100513.38;4962702;28;20456;-90
2022/08/04 06:30:54;;;;;;;6.30;3.25;;;;;;;29.15;53.48;100510.28;4963213;28;20042;-87
2022/08/04 06:33:32;;;;;;;9.63;4.07;;;;;;;29.36;52.88;100506.31;4963272;28;20038;-89
2022/08/04 06:36:00;;;;;;;9.45;3.50;;;;;;;29.47;53.70;100507.03;4962879;28;20034;-90
2022/08/04 06:38:27;;;;;;;7.90;4.20;;;;;;;29.50;53.49;100510.00;4963522;28;20082;-90
2022/08/04 06:40:56;;;;;;;11.70;4.68;;;;;;;29.65;52.57;100515.31;4980368;28;20133;-89
2022/08/04 06:43:23;;;;;;;16.35;5.13;;;;;;;29.39;53.01;100510.38;4980500;28;20058;-91
2022/08/04 06:45:49;;;;;;;10.30;4.35;;;;;;;29.56;52.13;100517.06;4980035;28;20571;-88
2022/08/04 06:48:16;;;;;;;11.77;4.72;;;;;;;30.03;50.99;100519.03;4979531;28;20031;-88
2022/08/04 06:50:46;;;;;;;7.10;4.60;;;;;;;30.75;48.06;100517.06;4964383;28;20475;-90
2022/08/04 06:53:15;;;;;;;10.25;3.65;;;;;;;31.09;47.46;100511.38;4974999;28;20039;-90
2022/08/04 06:55:44;;;;;;;9.23;3.88;;;;;;;30.88;48.29;100516.31;4974760;28;20054;-89
2022/08/04 06:58:11;;;;;;;14.93;4.70;;;;;;;31.18;46.20;100521.34;5002016;28;20030;-86
2022/08/04 07:00:40;;;;;;;12.63;4.70;;;;;;;30.59;47.90;100519.19;5011701;28;20037;-89
2022/08/04 07:03:06;;;;;;;10.95;4.40;;;;;;;30.91;47.77;100521.19;4978092;28;20038;-87
2022/08/04 07:05:33;;;;;;;14.15;5.10;;;;;;;30.87;47.98;100524.81;4989841;28;20062;-86
2022/08/04 07:07:59;;;;;;;28.15;5.65;;;;;;;31.55;46.27;100514.19;4995135;28;20054;-85
2022/08/04 07:10:28;;;;;;;13.73;5.28;;;;;;;31.41;46.68;100510.56;4985957;28;20047;-87
2022/08/04 07:12:58;;;;;;;18.73;5.70;;;;;;;32.34;43.89;100520.34;4992513;28;20030;-85
2022/08/04 07:15:32;;;;;;;11.75;5.53;;;;;;;31.72;45.73;100514.41;5008637;28;20043;-86
2022/08/04 07:17:58;;;;;;;11.25;5.65;;;;;;;31.38;46.85;100524.88;5008262;28;20042;-86
2022/08/04 07:20:24;;;;;;;13.48;5.20;;;;;;;31.29;47.39;100521.97;5009682;28;20030;-86
2022/08/04 07:22:50;;;;;;;15.98;4.60;;;;;;;31.91;45.98;100523.38;5010508;28;20038;-88
2022/08/04 07:25:17;;;;;;;10.10;5.03;;;;;;;31.81;46.11;100520.84;4993283;28;20025;-87
2022/08/04 07:27:43;;;;;;;14.32;6.10;;;;;;;31.40;47.57;100523.44;5013984;28;20018;-88
2022/08/04 07:30:09;;;;;;;15.05;6.50;;;;;;;31.36;47.58;100527.88;5003171;28;20033;-85
2022/08/04 07:32:36;;;;;;;10.65;7.22;;;;;;;31.29;47.63;100526.66;5013079;28;20034;-88
2022/08/04 07:35:04;;;;;;;13.65;6.53;;;;;;;31.40;47.40;100528.09;5008208;28;20038;-84
2022/08/04 07:37:30;;;;;;;15.80;5.95;;;;;;;31.55;47.28;100517.75;5016087;28;20064;-87
2022/08/04 07:39:56;;;;;;;10.50;5.70;;;;;;;31.71;46.23;100521.00;5005719;28;20606;-85
2022/08/04 07:42:22;;;;;;;12.23;5.57;;;;;;;31.99;45.26;100522.66;5008245;28;20057;-88
2022/08/04 07:44:49;;;;;;;10.60;5.35;;;;;;;31.93;45.67;100523.06;5008256;28;20038;-88
2022/08/04 07:47:16;;;;;;;7.40;5.28;;;;;;;32.15;45.11;100518.53;5008425;28;20064;-89
2022/08/04 07:49:42;;;;;;;20.60;5.07;;;;;;;32.51;45.40;100526.03;5005651;28;20031;-86
2022/08/04 07:52:08;;;;;;;7.85;5.55;;;;;;;32.66;44.09;100529.28;5010564;28;20019;-86
2022/08/04 07:54:37;;;;;;;15.70;4.38;;;;;;;33.73;41.76;100533.03;5013050;28;20030;-90
2022/08/04 07:57:03;;;;;;;12.07;5.13;;;;;;;33.05;42.29;100536.88;5010749;28;20014;-89
2022/08/04 07:59:29;;;;;;;8.73;4.53;;;;;;;32.79;42.61;100538.59;5014005;22;20037;-88
2022/08/04 08:02:00;;;;;;;10.52;4.72;;;;;;;33.03;41.67;100528.13;5060455;28;20084;-83
2022/08/04 08:04:29;;;;;;;12.45;4.45;;;;;;;33.05;40.96;100523.13;5055424;28;20033;-86
2022/08/04 08:06:57;;;;;;;8.10;3.95;;;;;;;34.22;38.64;100523.69;5053330;28;20037;-84
2022/08/04 08:09:24;;;;;;;9.90;3.65;;;;;;;34.43;38.58;100527.50;5053902;28;20048;-85
2022/08/04 08:11:52;;;;;;;8.10;4.00;;;;;;;35.09;37.44;100528.22;5038900;28;20017;-85
2022/08/04 08:14:19;;;;;;;16.13;3.60;;;;;;;34.38;38.94;100522.13;5038928;28;20100;-86
2022/08/04 08:16:48;;;;;;;11.75;3.63;;;;;;;34.97;37.85;100525.31;5055311;28;20105;-86
2022/08/04 08:19:15;;;;;;;5.45;3.25;;;;;;;35.08;37.73;100526.56;5056948;28;20075;-86
2022/08/04 08:21:47;;;;;;;17.13;3.22;;;;;;;34.67;38.39;100521.56;5035398;28;20030;-90
2022/08/04 08:24:16;;;;;;;6.95;3.33;;;;;;;35.14;37.45;100523.38;5028706;28;20034;-90
2022/08/04 08:26:44;;;;;;;7.20;3.13;;;;;;;34.66;38.49;100517.19;5021759;28;20022;-91
2022/08/04 08:29:14;;;;;;;7.60;3.30;;;;;;;34.39;38.50;100514.69;5021267;28;20088;-90
2022/08/04 08:31:48;;;;;;;11.18;3.35;;;;;;;34.50;38.65;100508.56;5025220;28;20048;-90
2022/08/04 08:34:17;;;;;;;16.83;3.33;;;;;;;35.08;38.45;100505.34;5052323;28;20061;-90
2022/08/04 08:36:47;;;;;;;12.27;3.17;;;;;;;34.90;38.83;100502.94;5057420;28;20021;-90
2022/08/04 08:39:23;;;;;;;10.07;3.22;;;;;;;35.06;38.30;100513.16;5021910;28;20058;-90
2022/08/04 08:42:11;;;;;;;8.52;2.60;;;;;;;35.71;37.01;100506.56;5035076;28;20046;-87
2022/08/04 08:45:16;;;;;;;8.55;2.20;;;;;;;35.99;36.22;100505.00;5037617;28;20026;-87
2022/08/04 08:48:19;;;;;;;5.90;2.28;;;;;;;35.04;36.81;100512.66;5036439;28;20022;-85
2022/08/04 08:51:02;;;;;;;17.90;2.85;;;;;;;36.15;35.69;100513.53;5033690;28;20045;-86
2022/08/04 08:54:06;;;;;;;7.95;2.15;;;;;;;35.73;35.94;100509.81;5026968;28;20060;-87
2022/08/04 08:56:50;;;;;;;10.68;1.67;;;;;;;35.84;33.55;100513.00;5030721;28;20033;-87
2022/08/04 08:59:41;;;;;;;3.85;1.65;;;;;;;36.05;32.50;100503.66;5050978;28;20048;-84
2022/08/04 09:02:25;;;;;;;8.27;1.63;;;;;;;35.08;33.19;100516.38;5040975;28;20041;-85
2022/08/04 09:05:18;;;;;;;8.35;1.60;;;;;;;35.21;34.37;100511.84;5048835;28;20064;-86
2022/08/04 09:08:19;;;;;;;6.70;1.35;;;;;;;36.23;30.79;100515.44;5009979;28;20111;-87
2022/08/04 09:11:06;;;;;;;7.95;1.70;;;;;;;36.74;31.64;100519.84;5049153;28;20037;-85
2022/08/04 09:13:45;;;;;;;3.33;1.63;;;;;;;36.77;32.59;100511.69;5064121;28;20037;-88
2022/08/04 09:16:20;;;;;;;8.85;2.90;;;;;;;36.90;32.20;100515.31;5067552;28;20045;-85
2022/08/04 09:19:11;;;;;;;12.50;3.03;;;;;;;36.43;32.05;100506.38;5072848;28;20088;-87
2022/08/04 09:21:46;;;;;;;11.55;3.10;;;;;;;36.65;31.99;100508.88;5067577;28;20374;-85
2022/08/04 09:24:49;;;;;;;5.28;2.25;;;;;;;36.98;31.69;100508.91;5030780;28;20037;-88
2022/08/04 09:27:27;;;;;;;11.13;3.20;;;;;;;36.66;31.94;100509.66;5030776;28;20034;-84
2022/08/04 09:30:07;;;;;;;11.75;3.20;;;;;;;36.43;31.94;100513.84;5029366;28;20093;-88
2022/08/04 09:32:45;;;;;;;10.00;2.15;;;;;;;36.48;30.89;100511.72;5065602;28;20100;-88
2022/08/04 09:35:19;;;;;;;4.63;1.88;;;;;;;36.71;31.18;100512.22;5034944;28;20049;-85
2022/08/04 09:38:10;;;;;;;4.47;2.08;;;;;;;37.31;29.72;100519.19;5033990;28;20097;-88
2022/08/04 09:40:47;;;;;;;7.57;2.40;;;;;;;37.06;29.72;100513.56;5050945;28;20085;-87
2022/08/04 09:43:36;;;;;;;2.47;1.70;;;;;;;36.55;30.82;100505.69;5051353;28;20109;-88
2022/08/04 09:46:29;;;;;;;5.07;1.70;;;;;;;36.75;30.63;100491.88;5054796;28;20032;-85
2022/08/04 09:49:11;;;;;;;7.65;1.70;;;;;;;37.19;29.81;100492.31;5054110;28;20050;-87
2022/08/04 09:51:52;;;;;;;8.10;1.75;;;;;;;36.97;28.46;100499.00;5052970;28;20027;-88
2022/08/04 09:54:48;;;;;;;3.80;1.00;;;;;;;36.87;27.12;100493.88;5038582;28;20109;-87
2022/08/04 09:57:36;;;;;;;6.22;1.50;;;;;;;37.44;26.91;100493.19;5018628;28;20469;-90
2022/08/04 10:00:09;;;;;;;9.45;1.55;;;;;;;37.40;26.32;100500.56;5039672;28;20560;-86
2022/08/04 10:03:19;;;;;;;5.32;1.20;;;;;;;36.57;25.81;100492.34;5044620;28;20432;-89
2022/08/04 10:06:09;;;;;;;7.10;1.00;;;;;;;36.43;26.69;100484.28;5025221;28;20401;-83
2022/08/04 10:08:53;;;;;;;9.38;1.38;;;;;;;36.83;27.35;100487.41;5040103;28;20047;-84
2022/08/04 10:11:43;;;;;;;4.18;1.38;;;;;;;37.26;25.53;100481.50;5052967;28;20330;-84
2022/08/04 10:14:28;;;;;;;28.08;11.60;;;;;;;37.46;26.64;100477.06;5037973;28;20035;-87
2022/08/04 10:17:12;;;;;;;7.95;2.60;;;;;;;38.13;25.39;100471.84;5037755;28;20045;-86
2022/08/04 10:19:40;;;;;;;3.75;1.27;;;;;;;37.66;25.58;100476.19;5036877;28;20033;-86
2022/08/04 10:22:17;;;;;;;3.55;1.17;;;;;;;37.63;25.40;100465.81;5044408;28;20013;-84
2022/08/04 10:25:21;;;;;;;3.83;1.45;;;;;;;37.97;25.39;100462.66;5045644;28;20030;-85
2022/08/04 10:28:15;;;;;;;5.15;1.33;;;;;;;37.92;25.48;100464.84;5037695;28;20041;-88
2022/08/04 10:30:48;;;;;;;2.67;0.82;;;;;;;37.84;23.46;100460.19;4939006;29;20052;-87
2022/08/04 10:33:29;;;;;;;5.35;0.80;;;;;;;37.30;22.67;100479.69;4952357;29;20051;-87
2022/08/04 10:36:18;;;;;;;2.78;0.68;;;;;;;37.81;21.13;100472.75;4953898;29;20046;-85
2022/08/04 10:39:00;;;;;;;4.25;0.50;;;;;;;38.15;19.79;100472.31;4936437;29;20482;-85
2022/08/04 10:42:13;;;;;;;4.13;0.70;;;;;;;38.62;19.98;100469.00;4977833;28;20044;-83
2022/08/04 10:44:46;;;;;;;5.18;0.80;;;;;;;38.87;18.98;100470.56;5034974;28;20103;-85
2022/08/04 10:47:19;;;;;;;4.50;0.60;;;;;;;37.96;20.33;100457.44;5036660;28;20033;-86
2022/08/04 10:49:52;;;;;;;3.42;0.60;;;;;;;37.69;21.10;100468.03;5039167;28;20037;-87
2022/08/04 10:52:33;;;;;;;5.63;2.88;;;;;;;37.70;21.30;100460.53;5043748;28;20038;-85
2022/08/04 10:55:10;;;;;;;6.38;1.30;;;;;;;37.59;21.88;100459.34;5011802;28;20125;-85
2022/08/04 10:57:40;;;;;;;3.95;1.48;;;;;;;38.12;21.78;100450.84;5014570;28;20445;-88
2022/08/04 11:00:18;;;;;;;4.40;0.70;;;;;;;38.16;21.57;100457.31;5036552;28;20147;-84
2022/08/04 11:02:52;;;;;;;1.40;0.50;;;;;;;38.26;20.76;100447.72;5045025;28;20037;-84
2022/08/04 11:05:29;;;;;;;2.67;0.60;;;;;;;38.25;20.39;100455.22;5044255;28;20112;-84
2022/08/04 11:08:10;;;;;;;2.97;0.45;;;;;;;38.03;20.75;100444.66;5017055;28;20429;-86
2022/08/04 11:11:01;;;;;;;1.10;0.55;;;;;;;38.18;21.01;100441.16;5037528;28;20022;-86
2022/08/04 11:13:48;;;;;;;1.65;0.52;;;;;;;37.44;21.86;100446.19;5046099;28;20135;-86
2022/08/04 11:16:28;;;;;;;1.23;0.60;;;;;;;37.79;21.14;100436.31;5017709;28;20084;-86
2022/08/04 11:19:15;;;;;;;0.95;0.50;;;;;;;37.99;20.93;100446.50;5041729;28;20049;-87
2022/08/04 11:22:04;;;;;;;0.85;0.40;;;;;;;37.57;20.38;100456.16;5045287;28;20054;-85
2022/08/04 11:24:45;;;;;;;1.52;0.60;;;;;;;37.64;20.61;100442.56;5051529;28;20726;-88
2022/08/04 11:27:16;;;;;;;2.63;0.52;;;;;;;37.64;20.92;100442.56;5054042;28;20045;-88
2022/08/04 11:30:02;;;;;;;3.77;0.63;;;;;;;37.92;20.55;100428.88;5040719;28;20112;-89
2022/08/04 11:32:44;;;;;;;3.33;0.70;;;;;;;38.49;20.60;100436.97;5016390;28;20634;-83
2022/08/04 11:35:36;;;;;;;3.03;0.63;;;;;;;38.83;21.13;100432.81;5029136;28;20025;-85
2022/08/04 11:38:17;;;;;;;3.22;0.68;;;;;;;38.61;20.90;100431.41;5031696;28;20055;-85
2022/08/04 11:40:46;;;;;;;6.28;0.80;;;;;;;38.67;21.19;100435.53;5013763;28;20056;-85
2022/08/04 11:43:18;;;;;;;2.47;0.70;;;;;;;38.30;21.71;100423.72;5032172;28;20036;-85
2022/08/04 11:45:54;;;;;;;1.35;0.60;;;;;;;37.81;21.72;100428.50;5032797;28;20034;-84
2022/08/04 11:48:29;;;;;;;2.78;0.40;;;;;;;37.62;22.16;100414.44;5015292;28;20056;-84
2022/08/04 11:50:58;;;;;;;0.90;0.65;;;;;;;36.87;23.04;100419.28;5029918;28;20045;-85
2022/08/04 11:53:26;;;;;;;2.05;0.57;;;;;;;36.31;23.96;100415.22;5018173;28;20029;-85
2022/08/04 11:55:57;;;;;;;2.25;0.75;;;;;;;35.97;23.92;100413.44;5031664;28;20045;-88
2022/08/04 11:58:22;;;;;;;1.92;0.50;;;;;;;35.31;24.20;100406.78;5012134;28;20032;-87
2022/08/04 12:01:10;;;;;;;0.85;0.60;;;;;;;35.27;24.27;100398.34;5032984;28;20046;-85
2022/08/04 12:03:58;;;;;;;1.10;0.60;;;;;;;35.42;24.46;100404.47;5032851;28;20033;-86
2022/08/04 12:06:31;;;;;;;2.15;0.95;;;;;;;35.43;24.34;100398.63;5032000;28;20036;-85
2022/08/04 12:09:16;;;;;;;0.75;0.60;;;;;;;35.01;25.00;100396.78;5032958;28;20095;-85
2022/08/04 12:11:53;;;;;;;4.10;0.68;;;;;;;35.15;24.84;100389.97;5033703;28;20037;-86
2022/08/04 12:14:36;;;;;;;4.00;0.70;;;;;;;35.12;26.06;100387.88;5012394;28;20033;-87
2022/08/04 12:17:06;;;;;;;0.70;0.47;;;;;;;35.00;25.05;100389.66;5029362;28;20034;-88